Airfield :
LOGIN :

Register | Disclaimer

   EN    FR    IT 

 










Legend :    VFR   Marginal VFR   IFR   Intensive IFR   Very Intensive IFR
Visi :
Ceiling :
>= 8 km
>= 3000ft
5 to 8 km
1000 to 3000 ft
1500m to 5 km
500 to 1000 ft
800 to 1500m
200 to 500 ft
< 800m
< 200 ft
Symbols :   Thunderstorms  Fog  Heavy snow  Heavy precipitations  Wind > 20 kt
SIGMETs :     Misc.  Thunderstorms  Icing  Turbulence  Mountain Waves  Volcanic Ashes






- Airport Elevation : 326 ft
- IATA code : LCG


LECO - A Coruna

CURRENT METAR :
  • 211530Z 02005KT 340V060 CAVOK 15/11 Q1028 NOSIG

EXPIRED METARs :
  • 211500Z 02005KT CAVOK 16/11 Q1028 NOSIG
  • 211430Z 02006KT 340V050 CAVOK 15/10 Q1028 NOSIG
  • 211400Z 03005KT 340V060 CAVOK 16/10 Q1028 NOSIG
  • 211330Z VRB02KT CAVOK 17/10 Q1029 NOSIG
  • 211300Z 06003KT 010V140 CAVOK 16/10 Q1029 NOSIG

TAF TAF LECO
Valid from the 21 at 15:00 until the 22 at 15:00 UTC


211400Z 2115/2215 VRB05KT 9999 SCT030 TX14/2214Z TN03/2206Z
PROB40
TEMPO 2121/2209 3000 BR BKN010
PROB40
TEMPO 2203/2209 0350 FG VV001
TEMPO 2210/2215 02010KT



MET'MAP, your aeronautical weather chart ! - Copyright ORBIFLY December 2007 - Disclaimer

ORBIFLY MET'MAP TEAM :

Programming & Development : Alexandra Zaïnal
Concept & original design : Baudouin d'Aumeries
Assistance for programming : Marc-Olivier Méhu
Technical & hardware support : Manuel Goepfert

Contact : metmap@orbifly.com




SOURCES & CREDITS :

   NOAA